createdAt,value
2022-11-10T00:03:45.253Z,11.57
2022-11-10T00:09:09.358Z,11.31
2022-11-10T00:14:49.558Z,11.93
2022-11-10T00:20:13.278Z,12.02
2022-11-10T00:25:37.593Z,11.92
2022-11-10T00:31:05.828Z,11.60
2022-11-10T00:36:28.408Z,11.03
2022-11-10T00:41:52.388Z,11.07
2022-11-10T00:47:15.101Z,11.31
2022-11-10T00:52:37.912Z,10.91
2022-11-10T00:58:01.561Z,10.98
2022-11-10T01:03:24.627Z,10.78
2022-11-10T01:08:47.877Z,11.33
2022-11-10T01:14:11.843Z,11.25
2022-11-10T01:19:34.600Z,11.66
2022-11-10T01:24:56.963Z,10.62
2022-11-10T01:30:21.093Z,10.15
2022-11-10T01:35:43.514Z,10.29
2022-11-10T01:41:07.674Z,10.77
2022-11-10T01:46:31.927Z,10.34
2022-11-10T01:51:58.999Z,10.55
2022-11-10T01:57:21.917Z,9.90
2022-11-10T02:02:50.819Z,9.91
2022-11-10T02:08:17.022Z,10.70
2022-11-10T02:13:40.164Z,10.21
2022-11-10T02:19:17.130Z,10.52
2022-11-10T02:24:41.278Z,10.42
2022-11-10T02:30:06.189Z,9.67
2022-11-10T02:35:29.232Z,10.24
2022-11-10T02:40:53.269Z,10.44
2022-11-10T02:46:15.765Z,8.70
2022-11-10T02:51:39.213Z,9.36
2022-11-10T02:57:03.556Z,9.22
2022-11-10T03:02:29.788Z,8.74
2022-11-10T03:07:55.764Z,8.63
2022-11-10T03:13:19.926Z,8.11
2022-11-10T03:18:43.138Z,8.05
2022-11-10T03:24:06.375Z,8.85
2022-11-10T03:29:30.595Z,8.44
2022-11-10T03:34:53.859Z,8.17
2022-11-10T03:40:16.990Z,8.13
2022-11-10T03:45:40.833Z,8.04
2022-11-10T03:51:03.285Z,8.20
2022-11-10T03:56:26.008Z,8.59
2022-11-10T04:01:50.223Z,8.70
2022-11-10T04:07:31.361Z,8.17
2022-11-10T04:13:11.143Z,8.32
2022-11-10T04:18:35.270Z,7.86
2022-11-10T04:23:58.312Z,7.26
2022-11-10T04:29:21.572Z,7.23
2022-11-10T04:34:45.876Z,7.42
2022-11-10T04:40:09.244Z,8.12
2022-11-10T04:45:31.908Z,7.34
2022-11-10T04:50:56.109Z,7.23
2022-11-10T04:56:20.207Z,6.94
2022-11-10T05:01:43.045Z,7.50
2022-11-10T05:07:07.485Z,7.59
2022-11-10T05:12:30.472Z,6.74
2022-11-10T05:17:54.225Z,6.79
2022-11-10T05:23:35.691Z,7.67
2022-11-10T05:28:58.618Z,8.22
2022-11-10T05:34:21.261Z,9.32
2022-11-10T05:39:45.242Z,9.02
2022-11-10T05:45:09.144Z,7.77
2022-11-10T05:50:31.584Z,7.12
2022-11-10T05:55:55.641Z,8.60
2022-11-10T06:01:18.228Z,9.24
2022-11-10T06:06:41.248Z,10.57
2022-11-10T06:12:05.991Z,8.05
2022-11-10T06:17:28.794Z,9.56
2022-11-10T06:23:02.835Z,9.17
2022-11-10T06:28:27.487Z,10.28
2022-11-10T06:33:52.427Z,11.05
2022-11-10T06:39:17.618Z,9.17
2022-11-10T06:44:45.341Z,9.41
2022-11-10T06:50:11.853Z,9.00
2022-11-10T06:55:37.619Z,10.53
2022-11-10T07:01:04.541Z,11.11
2022-11-10T07:06:28.116Z,11.17
2022-11-10T07:11:50.880Z,12.03
2022-11-10T07:17:15.117Z,11.93
2022-11-10T07:22:37.600Z,11.85
2022-11-10T07:28:01.224Z,11.48
2022-11-10T07:33:25.106Z,12.01
2022-11-10T07:38:50.688Z,11.83
2022-11-10T07:44:15.471Z,12.56
2022-11-10T07:49:39.814Z,12.53
2022-11-10T07:55:02.978Z,12.60
2022-11-10T08:00:25.853Z,12.56
2022-11-10T08:05:49.947Z,12.66
2022-11-10T08:11:12.387Z,13.22
2022-11-10T08:16:35.346Z,13.39
2022-11-10T08:21:59.767Z,12.37
2022-11-10T08:27:22.907Z,13.04
2022-11-10T08:32:45.579Z,12.46
2022-11-10T08:38:11.033Z,13.12
2022-11-10T08:43:34.000Z,13.34
2022-11-10T08:48:56.522Z,13.17
2022-11-10T08:54:20.579Z,13.70
2022-11-10T08:59:43.302Z,14.87
2022-11-10T09:05:07.244Z,14.18
2022-11-10T09:10:31.559Z,13.35
2022-11-10T09:15:53.878Z,12.29
2022-11-10T09:21:16.642Z,12.00
2022-11-10T09:26:45.301Z,11.94
2022-11-10T09:32:08.222Z,11.23
2022-11-10T09:37:30.697Z,11.17
2022-11-10T09:42:59.123Z,10.97
2022-11-10T09:48:28.828Z,12.08
2022-11-10T09:53:56.322Z,10.93
2022-11-10T09:59:27.464Z,10.90
2022-11-10T10:05:23.307Z,10.47
2022-11-10T10:10:49.353Z,10.06
2022-11-10T10:16:21.386Z,10.24
2022-11-10T10:21:56.191Z,10.05
2022-11-10T10:27:22.524Z,9.67
2022-11-10T10:32:46.678Z,9.74
2022-11-10T10:38:24.450Z,9.31
2022-11-10T10:43:50.399Z,9.98
2022-11-10T10:49:30.186Z,9.50
2022-11-10T10:55:02.137Z,9.05
2022-11-10T11:00:29.558Z,9.98
2022-11-10T11:06:08.773Z,9.18
2022-11-10T11:11:36.723Z,9.41
2022-11-10T11:17:02.256Z,9.15
2022-11-10T11:22:44.240Z,9.75
2022-11-10T11:28:19.757Z,8.79
2022-11-10T11:33:50.546Z,9.00
2022-11-10T11:39:31.254Z,9.41
2022-11-10T11:45:07.493Z,9.21
2022-11-10T11:50:37.539Z,8.96
2022-11-10T11:56:16.718Z,9.43
2022-11-10T12:02:02.864Z,9.17
2022-11-10T12:07:45.257Z,9.65
2022-11-10T12:13:31.459Z,9.19
2022-11-10T12:19:08.823Z,9.56
2022-11-10T12:24:57.473Z,9.78
2022-11-10T12:30:21.999Z,9.77
2022-11-10T12:35:47.413Z,10.18
2022-11-10T12:41:15.991Z,10.76
2022-11-10T12:46:48.163Z,10.23
2022-11-10T12:52:22.700Z,10.89
2022-11-10T12:57:50.510Z,10.97
2022-11-10T13:03:28.673Z,11.07
2022-11-10T13:08:53.453Z,11.14
2022-11-10T13:14:26.406Z,10.90
2022-11-10T13:19:53.372Z,11.80
2022-11-10T13:25:55.954Z,12.14
2022-11-10T13:31:52.465Z,11.43
2022-11-10T13:37:33.967Z,11.48
2022-11-10T13:43:27.924Z,10.71
2022-11-10T13:49:30.955Z,10.59
2022-11-10T13:55:15.714Z,10.28
2022-11-10T14:00:40.309Z,10.37
2022-11-10T14:06:13.729Z,10.46
2022-11-10T14:11:40.266Z,10.73
2022-11-10T14:17:05.154Z,10.55
2022-11-10T14:22:50.020Z,10.17
2022-11-10T14:28:28.374Z,10.13
2022-11-10T14:33:57.566Z,10.41
2022-11-10T14:39:24.903Z,10.19
2022-11-10T14:44:48.780Z,11.24
2022-11-10T14:50:21.097Z,11.24
2022-11-10T14:55:45.398Z,10.81
2022-11-10T15:01:09.111Z,10.26
2022-11-10T15:06:33.806Z,9.72
2022-11-10T15:12:31.556Z,10.15
2022-11-10T15:17:54.013Z,10.82
2022-11-10T15:23:23.383Z,11.26
2022-11-10T15:28:56.254Z,11.11
2022-11-10T15:34:44.437Z,11.38
2022-11-10T15:40:30.926Z,10.56
2022-11-10T15:45:58.696Z,11.19
2022-11-10T15:51:26.088Z,11.64
2022-11-10T15:56:49.561Z,11.31
2022-11-10T16:02:20.768Z,10.72
2022-11-10T16:07:43.943Z,10.88
2022-11-10T16:13:07.345Z,10.71
2022-11-10T16:18:33.060Z,9.87
2022-11-10T16:23:56.507Z,9.70
2022-11-10T16:29:21.181Z,9.14
2022-11-10T16:34:45.896Z,9.48
2022-11-10T16:40:14.796Z,10.09
2022-11-10T16:45:37.156Z,10.02
2022-11-10T16:51:02.904Z,10.16
2022-11-10T16:56:26.932Z,8.85
2022-11-10T17:01:51.593Z,9.30
2022-11-10T17:07:16.367Z,8.97
2022-11-10T17:12:39.239Z,8.99
2022-11-10T17:18:07.175Z,8.37
2022-11-10T17:23:31.628Z,8.78
2022-11-10T17:28:54.516Z,8.52
2022-11-10T17:34:17.422Z,9.16
2022-11-10T17:39:42.437Z,9.74
2022-11-10T17:45:05.847Z,9.64
2022-11-10T17:50:29.079Z,9.90
2022-11-10T17:55:53.154Z,9.25
2022-11-10T18:01:18.639Z,9.28
2022-11-10T18:06:41.750Z,9.39
2022-11-10T18:12:06.352Z,9.94
2022-11-10T18:17:32.303Z,10.07
2022-11-10T18:22:57.680Z,9.86
2022-11-10T18:28:21.887Z,10.23
2022-11-10T18:33:44.789Z,9.96
2022-11-10T18:39:07.549Z,9.50
2022-11-10T18:44:36.900Z,9.83
2022-11-10T18:50:00.378Z,9.37
2022-11-10T18:55:25.215Z,9.11
2022-11-10T19:00:49.563Z,8.94
2022-11-10T19:06:12.916Z,8.93
2022-11-10T19:11:35.909Z,9.18
2022-11-10T19:16:59.978Z,9.68
2022-11-10T19:22:22.773Z,9.52
2022-11-10T19:27:45.000Z,9.48
2022-11-10T19:33:08.740Z,9.37
2022-11-10T19:38:31.717Z,9.74
2022-11-10T19:43:55.073Z,10.13
2022-11-10T19:49:20.504Z,9.93
2022-11-10T19:54:43.523Z,10.02
2022-11-10T20:00:07.339Z,9.82
2022-11-10T20:05:31.681Z,9.74
2022-11-10T20:10:54.576Z,9.77
2022-11-10T20:16:18.253Z,9.22
2022-11-10T20:21:45.703Z,9.31
2022-11-10T20:27:08.641Z,9.19
2022-11-10T20:32:31.996Z,8.95
2022-11-10T20:37:55.797Z,9.30
2022-11-10T20:43:18.648Z,9.16
2022-11-10T20:48:41.420Z,9.04
2022-11-10T20:54:05.545Z,8.83
2022-11-10T20:59:27.906Z,8.91
2022-11-10T21:05:13.724Z,8.53
2022-11-10T21:10:53.583Z,8.46
2022-11-10T21:16:16.729Z,8.46
2022-11-10T21:21:39.684Z,8.44
2022-11-10T21:27:04.661Z,8.72
2022-11-10T21:32:27.766Z,9.08
2022-11-10T21:37:50.501Z,8.68
2022-11-10T21:43:14.697Z,9.02
2022-11-10T21:48:38.261Z,9.09
2022-11-10T21:54:03.926Z,9.53
2022-11-10T21:59:28.398Z,8.78
2022-11-10T22:04:51.194Z,8.67
2022-11-10T22:10:31.610Z,8.96
2022-11-10T22:16:12.932Z,8.45
2022-11-10T22:21:36.226Z,8.49
2022-11-10T22:27:01.411Z,8.15
2022-11-10T22:32:25.687Z,8.01
2022-11-10T22:37:48.053Z,7.69
2022-11-10T22:43:28.988Z,8.00
2022-11-10T22:48:53.269Z,7.61
2022-11-10T22:54:17.315Z,7.73
2022-11-10T22:59:40.107Z,7.79
2022-11-10T23:05:04.640Z,7.60
2022-11-10T23:10:27.800Z,7.93
2022-11-10T23:15:53.296Z,7.51
2022-11-10T23:21:20.741Z,7.63
2022-11-10T23:26:43.598Z,7.65
2022-11-10T23:32:06.777Z,7.47
2022-11-10T23:37:31.130Z,7.73
2022-11-10T23:42:53.770Z,7.85
2022-11-10T23:48:18.208Z,7.35
2022-11-10T23:53:42.766Z,7.76
2022-11-10T23:59:05.809Z,7.75
